sensor_id;sensor_type;location;lat;lon;timestamp;P1;durP1;ratioP1;P2;durP2;ratioP2
37485;SDS011;23341;50.296;18.960;2024-02-21T00:00:36;41.45;;;21.60;;
37485;SDS011;23341;50.296;18.960;2024-02-21T00:03:25;41.63;;;24.08;;
37485;SDS011;23341;50.296;18.960;2024-02-21T00:05:52;43.35;;;22.63;;
37485;SDS011;23341;50.296;18.960;2024-02-21T00:08:20;39.72;;;21.63;;
37485;SDS011;23341;50.296;18.960;2024-02-21T00:10:47;32.38;;;17.02;;
37485;SDS011;23341;50.296;18.960;2024-02-21T00:13:16;38.35;;;19.45;;
37485;SDS011;23341;50.296;18.960;2024-02-21T00:15:43;29.92;;;15.23;;
37485;SDS011;23341;50.296;18.960;2024-02-21T00:18:11;30.55;;;14.65;;
37485;SDS011;23341;50.296;18.960;2024-02-21T00:20:38;26.50;;;14.40;;
37485;SDS011;23341;50.296;18.960;2024-02-21T00:23:06;16.45;;;10.10;;
37485;SDS011;23341;50.296;18.960;2024-02-21T00:25:33;25.40;;;12.82;;
37485;SDS011;23341;50.296;18.960;2024-02-21T00:28:01;26.42;;;12.52;;
37485;SDS011;23341;50.296;18.960;2024-02-21T00:30:30;23.15;;;11.23;;
37485;SDS011;23341;50.296;18.960;2024-02-21T00:32:57;20.23;;;9.27;;
37485;SDS011;23341;50.296;18.960;2024-02-21T00:35:25;19.77;;;10.43;;
37485;SDS011;23341;50.296;18.960;2024-02-21T00:37:52;37.20;;;14.07;;
37485;SDS011;23341;50.296;18.960;2024-02-21T00:40:19;22.05;;;10.75;;
37485;SDS011;23341;50.296;18.960;2024-02-21T00:42:47;19.60;;;12.15;;
37485;SDS011;23341;50.296;18.960;2024-02-21T00:45:15;27.95;;;12.52;;
37485;SDS011;23341;50.296;18.960;2024-02-21T00:47:44;32.47;;;14.48;;
37485;SDS011;23341;50.296;18.960;2024-02-21T00:50:11;36.30;;;14.52;;
37485;SDS011;23341;50.296;18.960;2024-02-21T00:52:39;33.15;;;14.25;;
37485;SDS011;23341;50.296;18.960;2024-02-21T00:55:07;32.45;;;13.60;;
37485;SDS011;23341;50.296;18.960;2024-02-21T00:57:35;32.03;;;13.93;;
37485;SDS011;23341;50.296;18.960;2024-02-21T01:00:03;32.88;;;14.73;;
37485;SDS011;23341;50.296;18.960;2024-02-21T01:02:33;32.83;;;14.77;;
37485;SDS011;23341;50.296;18.960;2024-02-21T01:05:02;28.67;;;14.82;;
37485;SDS011;23341;50.296;18.960;2024-02-21T01:07:31;30.40;;;15.45;;
37485;SDS011;23341;50.296;18.960;2024-02-21T01:09:58;38.85;;;16.38;;
37485;SDS011;23341;50.296;18.960;2024-02-21T01:12:26;45.33;;;17.60;;
37485;SDS011;23341;50.296;18.960;2024-02-21T01:14:53;34.90;;;16.98;;
37485;SDS011;23341;50.296;18.960;2024-02-21T01:17:20;76.22;;;28.02;;
37485;SDS011;23341;50.296;18.960;2024-02-21T01:19:48;55.30;;;29.55;;
37485;SDS011;23341;50.296;18.960;2024-02-21T01:22:17;52.13;;;20.80;;
37485;SDS011;23341;50.296;18.960;2024-02-21T01:24:44;43.85;;;16.95;;
37485;SDS011;23341;50.296;18.960;2024-02-21T01:27:11;38.60;;;16.23;;
37485;SDS011;23341;50.296;18.960;2024-02-21T01:29:39;35.17;;;15.35;;
37485;SDS011;23341;50.296;18.960;2024-02-21T01:32:06;46.28;;;18.38;;
37485;SDS011;23341;50.296;18.960;2024-02-21T01:34:34;45.35;;;15.45;;
37485;SDS011;23341;50.296;18.960;2024-02-21T01:37:01;47.13;;;16.65;;
37485;SDS011;23341;50.296;18.960;2024-02-21T01:39:33;37.13;;;14.98;;
37485;SDS011;23341;50.296;18.960;2024-02-21T01:42:01;37.87;;;15.80;;
37485;SDS011;23341;50.296;18.960;2024-02-21T01:44:28;36.45;;;16.60;;
37485;SDS011;23341;50.296;18.960;2024-02-21T01:46:56;34.13;;;17.65;;
37485;SDS011;23341;50.296;18.960;2024-02-21T01:49:23;30.38;;;15.25;;
37485;SDS011;23341;50.296;18.960;2024-02-21T01:51:51;42.67;;;18.88;;
37485;SDS011;23341;50.296;18.960;2024-02-21T01:54:19;32.33;;;14.25;;
37485;SDS011;23341;50.296;18.960;2024-02-21T01:56:49;37.40;;;14.55;;
37485;SDS011;23341;50.296;18.960;2024-02-21T01:59:17;35.53;;;14.32;;
37485;SDS011;23341;50.296;18.960;2024-02-21T02:01:46;26.60;;;13.75;;
37485;SDS011;23341;50.296;18.960;2024-02-21T02:04:13;59.67;;;18.38;;
37485;SDS011;23341;50.296;18.960;2024-02-21T02:06:41;41.58;;;17.25;;
37485;SDS011;23341;50.296;18.960;2024-02-21T02:09:09;31.63;;;12.23;;
37485;SDS011;23341;50.296;18.960;2024-02-21T02:11:36;22.40;;;9.50;;
37485;SDS011;23341;50.296;18.960;2024-02-21T02:14:05;24.60;;;9.30;;
37485;SDS011;23341;50.296;18.960;2024-02-21T02:16:33;23.15;;;10.48;;
37485;SDS011;23341;50.296;18.960;2024-02-21T02:19:00;26.92;;;10.20;;
37485;SDS011;23341;50.296;18.960;2024-02-21T02:21:29;26.90;;;11.30;;
37485;SDS011;23341;50.296;18.960;2024-02-21T02:24:00;23.80;;;11.07;;
37485;SDS011;23341;50.296;18.960;2024-02-21T02:26:28;21.33;;;10.05;;
37485;SDS011;23341;50.296;18.960;2024-02-21T02:28:56;17.15;;;10.05;;
37485;SDS011;23341;50.296;18.960;2024-02-21T02:31:23;18.95;;;11.07;;
37485;SDS011;23341;50.296;18.960;2024-02-21T02:33:50;26.70;;;13.30;;
37485;SDS011;23341;50.296;18.960;2024-02-21T02:36:18;24.80;;;13.68;;
37485;SDS011;23341;50.296;18.960;2024-02-21T02:38:45;24.17;;;13.15;;
37485;SDS011;23341;50.296;18.960;2024-02-21T02:41:14;32.47;;;15.00;;
37485;SDS011;23341;50.296;18.960;2024-02-21T02:43:42;25.40;;;12.43;;
37485;SDS011;23341;50.296;18.960;2024-02-21T02:46:09;18.42;;;9.65;;
37485;SDS011;23341;50.296;18.960;2024-02-21T02:48:36;24.13;;;11.00;;
37485;SDS011;23341;50.296;18.960;2024-02-21T02:51:05;35.08;;;12.73;;
37485;SDS011;23341;50.296;18.960;2024-02-21T02:53:32;25.02;;;10.98;;
37485;SDS011;23341;50.296;18.960;2024-02-21T02:55:59;37.42;;;14.45;;
37485;SDS011;23341;50.296;18.960;2024-02-21T02:58:28;29.05;;;11.77;;
37485;SDS011;23341;50.296;18.960;2024-02-21T03:00:56;22.23;;;10.18;;
37485;SDS011;23341;50.296;18.960;2024-02-21T03:03:23;25.73;;;10.98;;
37485;SDS011;23341;50.296;18.960;2024-02-21T03:05:51;23.80;;;11.50;;
37485;SDS011;23341;50.296;18.960;2024-02-21T03:08:18;22.80;;;9.90;;
37485;SDS011;23341;50.296;18.960;2024-02-21T03:10:46;21.85;;;11.07;;
37485;SDS011;23341;50.296;18.960;2024-02-21T03:13:13;26.55;;;14.05;;
37485;SDS011;23341;50.296;18.960;2024-02-21T03:15:42;32.05;;;17.25;;
37485;SDS011;23341;50.296;18.960;2024-02-21T03:18:09;32.97;;;17.73;;
37485;SDS011;23341;50.296;18.960;2024-02-21T03:20:37;34.63;;;16.95;;
37485;SDS011;23341;50.296;18.960;2024-02-21T03:23:04;46.88;;;22.40;;
37485;SDS011;23341;50.296;18.960;2024-02-21T03:25:32;41.47;;;18.48;;
37485;SDS011;23341;50.296;18.960;2024-02-21T03:27:59;37.22;;;19.55;;
37485;SDS011;23341;50.296;18.960;2024-02-21T03:30:27;35.70;;;19.27;;
37485;SDS011;23341;50.296;18.960;2024-02-21T03:32:56;31.63;;;18.58;;
37485;SDS011;23341;50.296;18.960;2024-02-21T03:35:23;39.90;;;20.38;;
37485;SDS011;23341;50.296;18.960;2024-02-21T03:37:52;37.35;;;19.23;;
37485;SDS011;23341;50.296;18.960;2024-02-21T03:40:20;44.03;;;20.63;;
37485;SDS011;23341;50.296;18.960;2024-02-21T03:42:47;29.60;;;19.50;;
37485;SDS011;23341;50.296;18.960;2024-02-21T03:45:15;34.50;;;19.92;;
37485;SDS011;23341;50.296;18.960;2024-02-21T03:47:42;39.63;;;22.10;;
37485;SDS011;23341;50.296;18.960;2024-02-21T03:50:11;43.55;;;19.45;;
37485;SDS011;23341;50.296;18.960;2024-02-21T03:52:39;45.15;;;20.25;;
37485;SDS011;23341;50.296;18.960;2024-02-21T03:55:07;33.95;;;19.25;;
37485;SDS011;23341;50.296;18.960;2024-02-21T03:57:35;31.98;;;16.90;;
37485;SDS011;23341;50.296;18.960;2024-02-21T04:00:03;38.47;;;17.25;;
37485;SDS011;23341;50.296;18.960;2024-02-21T04:02:34;31.33;;;17.10;;
37485;SDS011;23341;50.296;18.960;2024-02-21T04:05:02;39.53;;;18.40;;
37485;SDS011;23341;50.296;18.960;2024-02-21T04:07:30;33.95;;;17.00;;
37485;SDS011;23341;50.296;18.960;2024-02-21T04:09:58;30.85;;;17.60;;
37485;SDS011;23341;50.296;18.960;2024-02-21T04:12:26;39.28;;;19.50;;
37485;SDS011;23341;50.296;18.960;2024-02-21T04:14:53;42.30;;;18.48;;
37485;SDS011;23341;50.296;18.960;2024-02-21T04:17:21;45.00;;;18.60;;
37485;SDS011;23341;50.296;18.960;2024-02-21T04:19:48;48.90;;;20.27;;
37485;SDS011;23341;50.296;18.960;2024-02-21T04:22:15;45.58;;;21.48;;
37485;SDS011;23341;50.296;18.960;2024-02-21T04:24:44;45.50;;;21.05;;
37485;SDS011;23341;50.296;18.960;2024-02-21T04:27:12;44.40;;;21.08;;
37485;SDS011;23341;50.296;18.960;2024-02-21T04:29:39;38.67;;;19.88;;
37485;SDS011;23341;50.296;18.960;2024-02-21T04:32:06;39.30;;;19.77;;
37485;SDS011;23341;50.296;18.960;2024-02-21T04:34:34;38.92;;;18.48;;
37485;SDS011;23341;50.296;18.960;2024-02-21T04:37:02;34.30;;;19.17;;
37485;SDS011;23341;50.296;18.960;2024-02-21T04:39:30;51.38;;;22.00;;
37485;SDS011;23341;50.296;18.960;2024-02-21T04:41:58;36.47;;;18.45;;
37485;SDS011;23341;50.296;18.960;2024-02-21T04:44:26;39.28;;;19.27;;
37485;SDS011;23341;50.296;18.960;2024-02-21T04:46:53;36.13;;;20.00;;
37485;SDS011;23341;50.296;18.960;2024-02-21T04:49:21;45.75;;;20.60;;
37485;SDS011;23341;50.296;18.960;2024-02-21T04:51:48;39.13;;;20.45;;
37485;SDS011;23341;50.296;18.960;2024-02-21T04:54:16;35.22;;;18.08;;
37485;SDS011;23341;50.296;18.960;2024-02-21T04:56:43;35.53;;;17.85;;
37485;SDS011;23341;50.296;18.960;2024-02-21T04:59:12;38.83;;;18.48;;
37485;SDS011;23341;50.296;18.960;2024-02-21T05:01:39;43.97;;;19.60;;
37485;SDS011;23341;50.296;18.960;2024-02-21T05:04:07;42.65;;;22.23;;
37485;SDS011;23341;50.296;18.960;2024-02-21T05:06:36;53.83;;;29.27;;
37485;SDS011;23341;50.296;18.960;2024-02-21T05:09:05;51.78;;;29.58;;
37485;SDS011;23341;50.296;18.960;2024-02-21T05:11:34;59.47;;;31.45;;
37485;SDS011;23341;50.296;18.960;2024-02-21T05:14:02;59.35;;;33.47;;
37485;SDS011;23341;50.296;18.960;2024-02-21T05:16:30;63.40;;;32.92;;
37485;SDS011;23341;50.296;18.960;2024-02-21T05:18:58;62.92;;;28.48;;
37485;SDS011;23341;50.296;18.960;2024-02-21T05:21:26;53.83;;;29.60;;
37485;SDS011;23341;50.296;18.960;2024-02-21T05:23:54;51.78;;;25.13;;
37485;SDS011;23341;50.296;18.960;2024-02-21T05:26:21;53.47;;;26.70;;
37485;SDS011;23341;50.296;18.960;2024-02-21T05:28:49;47.67;;;26.15;;
37485;SDS011;23341;50.296;18.960;2024-02-21T05:31:17;53.42;;;23.00;;
37485;SDS011;23341;50.296;18.960;2024-02-21T05:33:46;42.72;;;24.98;;
37485;SDS011;23341;50.296;18.960;2024-02-21T05:36:14;67.37;;;28.50;;
37485;SDS011;23341;50.296;18.960;2024-02-21T05:38:41;55.38;;;25.98;;
37485;SDS011;23341;50.296;18.960;2024-02-21T05:41:09;56.20;;;29.70;;
37485;SDS011;23341;50.296;18.960;2024-02-21T05:43:36;51.50;;;26.25;;
37485;SDS011;23341;50.296;18.960;2024-02-21T05:46:04;50.97;;;27.65;;
37485;SDS011;23341;50.296;18.960;2024-02-21T05:48:31;54.65;;;27.58;;
37485;SDS011;23341;50.296;18.960;2024-02-21T05:51:01;48.97;;;26.73;;
37485;SDS011;23341;50.296;18.960;2024-02-21T05:53:29;53.63;;;27.33;;
37485;SDS011;23341;50.296;18.960;2024-02-21T05:55:56;69.72;;;32.45;;
37485;SDS011;23341;50.296;18.960;2024-02-21T05:58:24;54.20;;;29.45;;
37485;SDS011;23341;50.296;18.960;2024-02-21T06:00:51;69.65;;;35.58;;
37485;SDS011;23341;50.296;18.960;2024-02-21T06:03:19;47.78;;;28.15;;
37485;SDS011;23341;50.296;18.960;2024-02-21T06:05:47;52.22;;;30.75;;
37485;SDS011;23341;50.296;18.960;2024-02-21T06:08:16;57.10;;;31.67;;
37485;SDS011;23341;50.296;18.960;2024-02-21T06:10:43;48.80;;;28.70;;
37485;SDS011;23341;50.296;18.960;2024-02-21T06:13:11;47.88;;;25.85;;
37485;SDS011;23341;50.296;18.960;2024-02-21T06:15:38;38.75;;;22.45;;
37485;SDS011;23341;50.296;18.960;2024-02-21T06:18:06;43.78;;;22.80;;
37485;SDS011;23341;50.296;18.960;2024-02-21T06:20:33;45.47;;;23.63;;
37485;SDS011;23341;50.296;18.960;2024-02-21T06:23:02;43.00;;;23.55;;
37485;SDS011;23341;50.296;18.960;2024-02-21T06:25:31;56.75;;;28.38;;
37485;SDS011;23341;50.296;18.960;2024-02-21T06:27:59;46.95;;;27.75;;
37485;SDS011;23341;50.296;18.960;2024-02-21T06:30:26;45.13;;;23.73;;
37485;SDS011;23341;50.296;18.960;2024-02-21T06:32:54;49.55;;;28.23;;
37485;SDS011;23341;50.296;18.960;2024-02-21T06:35:21;51.78;;;28.27;;
37485;SDS011;23341;50.296;18.960;2024-02-21T06:37:50;51.38;;;27.45;;
37485;SDS011;23341;50.296;18.960;2024-02-21T06:40:17;53.58;;;27.95;;
37485;SDS011;23341;50.296;18.960;2024-02-21T06:42:49;55.22;;;30.20;;
37485;SDS011;23341;50.296;18.960;2024-02-21T06:45:17;57.13;;;28.17;;
37485;SDS011;23341;50.296;18.960;2024-02-21T06:47:44;53.42;;;29.90;;
37485;SDS011;23341;50.296;18.960;2024-02-21T06:50:12;43.38;;;25.83;;
37485;SDS011;23341;50.296;18.960;2024-02-21T06:52:40;45.83;;;21.88;;
37485;SDS011;23341;50.296;18.960;2024-02-21T06:55:07;53.35;;;26.85;;
37485;SDS011;23341;50.296;18.960;2024-02-21T06:57:35;58.05;;;27.05;;
37485;SDS011;23341;50.296;18.960;2024-02-21T07:00:05;49.60;;;26.70;;
37485;SDS011;23341;50.296;18.960;2024-02-21T07:02:34;46.83;;;23.80;;
37485;SDS011;23341;50.296;18.960;2024-02-21T07:05:01;38.97;;;21.20;;
37485;SDS011;23341;50.296;18.960;2024-02-21T07:07:29;38.92;;;22.15;;
37485;SDS011;23341;50.296;18.960;2024-02-21T07:09:57;45.20;;;22.98;;
37485;SDS011;23341;50.296;18.960;2024-02-21T07:12:26;37.92;;;19.45;;
37485;SDS011;23341;50.296;18.960;2024-02-21T07:14:53;45.67;;;19.83;;
37485;SDS011;23341;50.296;18.960;2024-02-21T07:17:22;39.40;;;17.90;;
37485;SDS011;23341;50.296;18.960;2024-02-21T07:19:49;31.02;;;16.92;;
37485;SDS011;23341;50.296;18.960;2024-02-21T07:22:17;29.25;;;18.10;;
37485;SDS011;23341;50.296;18.960;2024-02-21T07:24:44;41.95;;;19.88;;
37485;SDS011;23341;50.296;18.960;2024-02-21T07:27:13;40.28;;;21.67;;
37485;SDS011;23341;50.296;18.960;2024-02-21T07:29:41;41.83;;;20.02;;
37485;SDS011;23341;50.296;18.960;2024-02-21T07:32:13;37.38;;;19.92;;
37485;SDS011;23341;50.296;18.960;2024-02-21T07:34:42;43.25;;;26.33;;
37485;SDS011;23341;50.296;18.960;2024-02-21T07:37:10;41.63;;;22.30;;
37485;SDS011;23341;50.296;18.960;2024-02-21T07:39:37;40.33;;;19.95;;
37485;SDS011;23341;50.296;18.960;2024-02-21T07:42:05;40.22;;;17.63;;
37485;SDS011;23341;50.296;18.960;2024-02-21T07:44:32;30.90;;;16.23;;
37485;SDS011;23341;50.296;18.960;2024-02-21T07:47:00;38.53;;;17.67;;
37485;SDS011;23341;50.296;18.960;2024-02-21T07:49:27;33.15;;;17.67;;
37485;SDS011;23341;50.296;18.960;2024-02-21T07:51:56;34.45;;;18.38;;
37485;SDS011;23341;50.296;18.960;2024-02-21T07:54:24;37.33;;;19.90;;
37485;SDS011;23341;50.296;18.960;2024-02-21T07:56:51;31.77;;;16.27;;
37485;SDS011;23341;50.296;18.960;2024-02-21T07:59:19;25.88;;;16.05;;
37485;SDS011;23341;50.296;18.960;2024-02-21T08:01:46;28.67;;;14.77;;
37485;SDS011;23341;50.296;18.960;2024-02-21T08:04:14;35.53;;;15.32;;
37485;SDS011;23341;50.296;18.960;2024-02-21T08:06:41;30.35;;;16.00;;
37485;SDS011;23341;50.296;18.960;2024-02-21T08:09:12;31.73;;;16.90;;
37485;SDS011;23341;50.296;18.960;2024-02-21T08:11:39;31.08;;;16.13;;
37485;SDS011;23341;50.296;18.960;2024-02-21T08:14:07;28.30;;;13.90;;
37485;SDS011;23341;50.296;18.960;2024-02-21T08:16:34;27.67;;;15.52;;
37485;SDS011;23341;50.296;18.960;2024-02-21T08:19:02;25.65;;;13.38;;
37485;SDS011;23341;50.296;18.960;2024-02-21T08:21:30;33.97;;;15.75;;
37485;SDS011;23341;50.296;18.960;2024-02-21T08:23:57;29.52;;;13.00;;
37485;SDS011;23341;50.296;18.960;2024-02-21T08:26:26;27.33;;;14.32;;
37485;SDS011;23341;50.296;18.960;2024-02-21T08:28:55;28.27;;;12.82;;
37485;SDS011;23341;50.296;18.960;2024-02-21T08:31:24;25.77;;;14.85;;
37485;SDS011;23341;50.296;18.960;2024-02-21T08:33:56;25.13;;;14.02;;
37485;SDS011;23341;50.296;18.960;2024-02-21T08:36:28;24.63;;;13.85;;
37485;SDS011;23341;50.296;18.960;2024-02-21T08:38:56;28.38;;;14.30;;
37485;SDS011;23341;50.296;18.960;2024-02-21T08:41:23;32.95;;;17.10;;
37485;SDS011;23341;50.296;18.960;2024-02-21T08:43:53;30.10;;;15.93;;
37485;SDS011;23341;50.296;18.960;2024-02-21T08:46:21;36.03;;;15.15;;
37485;SDS011;23341;50.296;18.960;2024-02-21T08:48:49;36.75;;;17.05;;
37485;SDS011;23341;50.296;18.960;2024-02-21T08:51:18;32.38;;;15.93;;
37485;SDS011;23341;50.296;18.960;2024-02-21T08:53:46;41.30;;;20.73;;
37485;SDS011;23341;50.296;18.960;2024-02-21T08:56:14;28.23;;;15.35;;
37485;SDS011;23341;50.296;18.960;2024-02-21T08:58:43;29.08;;;15.15;;
37485;SDS011;23341;50.296;18.960;2024-02-21T09:01:11;28.55;;;14.55;;
37485;SDS011;23341;50.296;18.960;2024-02-21T09:03:38;19.00;;;12.55;;
37485;SDS011;23341;50.296;18.960;2024-02-21T09:06:06;22.42;;;13.95;;
37485;SDS011;23341;50.296;18.960;2024-02-21T09:08:35;29.95;;;14.55;;
37485;SDS011;23341;50.296;18.960;2024-02-21T09:11:02;24.92;;;12.18;;
37485;SDS011;23341;50.296;18.960;2024-02-21T09:13:32;27.05;;;14.32;;
37485;SDS011;23341;50.296;18.960;2024-02-21T09:16:02;32.95;;;14.75;;
37485;SDS011;23341;50.296;18.960;2024-02-21T09:18:29;34.97;;;18.60;;
37485;SDS011;23341;50.296;18.960;2024-02-21T09:20:57;23.00;;;13.20;;
37485;SDS011;23341;50.296;18.960;2024-02-21T09:23:25;28.00;;;15.73;;
37485;SDS011;23341;50.296;18.960;2024-02-21T09:25:53;30.85;;;16.25;;
37485;SDS011;23341;50.296;18.960;2024-02-21T09:28:21;29.13;;;15.52;;
37485;SDS011;23341;50.296;18.960;2024-02-21T09:30:48;28.58;;;15.02;;
37485;SDS011;23341;50.296;18.960;2024-02-21T09:33:17;35.30;;;15.90;;
37485;SDS011;23341;50.296;18.960;2024-02-21T09:35:45;45.00;;;22.30;;
37485;SDS011;23341;50.296;18.960;2024-02-21T09:38:13;43.45;;;20.73;;
37485;SDS011;23341;50.296;18.960;2024-02-21T09:40:40;26.60;;;13.90;;
37485;SDS011;23341;50.296;18.960;2024-02-21T09:43:08;28.85;;;20.50;;
37485;SDS011;23341;50.296;18.960;2024-02-21T09:45:35;20.63;;;13.07;;
37485;SDS011;23341;50.296;18.960;2024-02-21T09:51:03;33.53;;;17.88;;
37485;SDS011;23341;50.296;18.960;2024-02-21T09:53:32;36.10;;;17.75;;
37485;SDS011;23341;50.296;18.960;2024-02-21T09:56:05;50.65;;;24.08;;
37485;SDS011;23341;50.296;18.960;2024-02-21T09:58:35;30.23;;;15.77;;
37485;SDS011;23341;50.296;18.960;2024-02-21T10:01:03;22.95;;;11.30;;
37485;SDS011;23341;50.296;18.960;2024-02-21T10:03:33;25.23;;;12.98;;
37485;SDS011;23341;50.296;18.960;2024-02-21T10:06:01;21.65;;;12.60;;
37485;SDS011;23341;50.296;18.960;2024-02-21T10:08:29;20.45;;;10.52;;
37485;SDS011;23341;50.296;18.960;2024-02-21T10:10:57;22.20;;;11.35;;
37485;SDS011;23341;50.296;18.960;2024-02-21T10:13:26;22.63;;;11.27;;
37485;SDS011;23341;50.296;18.960;2024-02-21T10:16:02;27.10;;;10.50;;
37485;SDS011;23341;50.296;18.960;2024-02-21T10:18:30;20.63;;;10.25;;
37485;SDS011;23341;50.296;18.960;2024-02-21T10:21:03;21.02;;;9.57;;
37485;SDS011;23341;50.296;18.960;2024-02-21T10:23:42;24.17;;;10.65;;
37485;SDS011;23341;50.296;18.960;2024-02-21T10:26:10;15.57;;;10.07;;
37485;SDS011;23341;50.296;18.960;2024-02-21T10:28:38;26.17;;;12.30;;
37485;SDS011;23341;50.296;18.960;2024-02-21T10:31:08;28.33;;;11.00;;
37485;SDS011;23341;50.296;18.960;2024-02-21T10:33:36;17.83;;;10.27;;
37485;SDS011;23341;50.296;18.960;2024-02-21T10:36:10;23.27;;;10.57;;
37485;SDS011;23341;50.296;18.960;2024-02-21T10:38:38;31.08;;;13.05;;
37485;SDS011;23341;50.296;18.960;2024-02-21T10:41:06;38.55;;;18.65;;
37485;SDS011;23341;50.296;18.960;2024-02-21T10:43:37;39.15;;;19.33;;
37485;SDS011;23341;50.296;18.960;2024-02-21T10:46:07;39.47;;;21.13;;
37485;SDS011;23341;50.296;18.960;2024-02-21T10:48:42;29.75;;;15.25;;
37485;SDS011;23341;50.296;18.960;2024-02-21T10:51:15;26.20;;;14.15;;
37485;SDS011;23341;50.296;18.960;2024-02-21T10:53:45;26.15;;;10.80;;
37485;SDS011;23341;50.296;18.960;2024-02-21T10:56:22;25.08;;;11.30;;
37485;SDS011;23341;50.296;18.960;2024-02-21T10:58:53;26.85;;;10.57;;
37485;SDS011;23341;50.296;18.960;2024-02-21T11:01:22;27.30;;;12.98;;
37485;SDS011;23341;50.296;18.960;2024-02-21T11:06:22;24.23;;;13.38;;
37485;SDS011;23341;50.296;18.960;2024-02-21T11:09:01;30.83;;;15.93;;
37485;SDS011;23341;50.296;18.960;2024-02-21T11:11:30;24.83;;;13.95;;
37485;SDS011;23341;50.296;18.960;2024-02-21T11:14:09;25.17;;;12.25;;
37485;SDS011;23341;50.296;18.960;2024-02-21T11:16:39;14.75;;;8.15;;
37485;SDS011;23341;50.296;18.960;2024-02-21T11:19:08;19.77;;;9.10;;
37485;SDS011;23341;50.296;18.960;2024-02-21T11:21:38;21.20;;;10.40;;
37485;SDS011;23341;50.296;18.960;2024-02-21T11:26:36;31.40;;;15.10;;
37485;SDS011;23341;50.296;18.960;2024-02-21T11:29:04;22.10;;;13.13;;
37485;SDS011;23341;50.296;18.960;2024-02-21T11:31:38;25.05;;;10.95;;
37485;SDS011;23341;50.296;18.960;2024-02-21T11:34:08;26.90;;;13.00;;
37485;SDS011;23341;50.296;18.960;2024-02-21T11:39:14;22.73;;;10.88;;
37485;SDS011;23341;50.296;18.960;2024-02-21T11:41:46;27.42;;;11.15;;
37485;SDS011;23341;50.296;18.960;2024-02-21T11:44:14;26.17;;;11.32;;
37485;SDS011;23341;50.296;18.960;2024-02-21T11:46:42;21.17;;;8.57;;
37485;SDS011;23341;50.296;18.960;2024-02-21T11:49:09;25.65;;;9.60;;
37485;SDS011;23341;50.296;18.960;2024-02-21T11:51:37;22.50;;;10.80;;
37485;SDS011;23341;50.296;18.960;2024-02-21T11:54:05;22.65;;;10.27;;
37485;SDS011;23341;50.296;18.960;2024-02-21T11:56:36;33.70;;;12.38;;
37485;SDS011;23341;50.296;18.960;2024-02-21T11:59:04;23.70;;;12.77;;
37485;SDS011;23341;50.296;18.960;2024-02-21T12:01:32;22.63;;;13.15;;
37485;SDS011;23341;50.296;18.960;2024-02-21T12:04:00;23.85;;;13.45;;
37485;SDS011;23341;50.296;18.960;2024-02-21T12:06:29;25.20;;;13.27;;
37485;SDS011;23341;50.296;18.960;2024-02-21T12:08:57;31.08;;;13.85;;
37485;SDS011;23341;50.296;18.960;2024-02-21T12:11:25;21.27;;;10.60;;
37485;SDS011;23341;50.296;18.960;2024-02-21T12:14:00;21.88;;;9.43;;
37485;SDS011;23341;50.296;18.960;2024-02-21T12:16:29;30.50;;;15.43;;
37485;SDS011;23341;50.296;18.960;2024-02-21T12:18:57;29.65;;;14.95;;
37485;SDS011;23341;50.296;18.960;2024-02-21T12:21:25;35.05;;;17.30;;
37485;SDS011;23341;50.296;18.960;2024-02-21T12:23:54;26.48;;;12.65;;
37485;SDS011;23341;50.296;18.960;2024-02-21T12:26:22;21.08;;;11.50;;
37485;SDS011;23341;50.296;18.960;2024-02-21T12:28:49;26.95;;;13.40;;
37485;SDS011;23341;50.296;18.960;2024-02-21T12:31:18;22.40;;;11.52;;
37485;SDS011;23341;50.296;18.960;2024-02-21T12:33:47;21.08;;;12.68;;
37485;SDS011;23341;50.296;18.960;2024-02-21T12:36:15;26.10;;;13.73;;
37485;SDS011;23341;50.296;18.960;2024-02-21T12:38:42;20.65;;;11.35;;
37485;SDS011;23341;50.296;18.960;2024-02-21T12:41:10;26.42;;;11.90;;
37485;SDS011;23341;50.296;18.960;2024-02-21T12:43:37;26.70;;;12.55;;
37485;SDS011;23341;50.296;18.960;2024-02-21T12:46:04;23.83;;;11.25;;
37485;SDS011;23341;50.296;18.960;2024-02-21T12:48:34;26.33;;;11.00;;
37485;SDS011;23341;50.296;18.960;2024-02-21T12:51:02;21.08;;;10.45;;
37485;SDS011;23341;50.296;18.960;2024-02-21T12:53:30;27.40;;;14.43;;
37485;SDS011;23341;50.296;18.960;2024-02-21T12:55:57;44.47;;;20.55;;
37485;SDS011;23341;50.296;18.960;2024-02-21T12:58:25;40.28;;;21.65;;
37485;SDS011;23341;50.296;18.960;2024-02-21T13:00:52;23.52;;;11.55;;
37485;SDS011;23341;50.296;18.960;2024-02-21T13:03:20;29.50;;;16.55;;
37485;SDS011;23341;50.296;18.960;2024-02-21T13:05:49;19.42;;;10.93;;
37485;SDS011;23341;50.296;18.960;2024-02-21T13:08:16;18.95;;;11.23;;
37485;SDS011;23341;50.296;18.960;2024-02-21T13:10:44;22.95;;;11.90;;
37485;SDS011;23341;50.296;18.960;2024-02-21T13:13:13;18.40;;;10.48;;
37485;SDS011;23341;50.296;18.960;2024-02-21T13:15:41;25.27;;;14.15;;
37485;SDS011;23341;50.296;18.960;2024-02-21T13:18:09;22.60;;;10.30;;
37485;SDS011;23341;50.296;18.960;2024-02-21T13:20:36;35.33;;;17.00;;
37485;SDS011;23341;50.296;18.960;2024-02-21T13:23:06;27.52;;;12.30;;
37485;SDS011;23341;50.296;18.960;2024-02-21T13:25:33;24.90;;;12.20;;
37485;SDS011;23341;50.296;18.960;2024-02-21T13:28:00;26.30;;;13.35;;
37485;SDS011;23341;50.296;18.960;2024-02-21T13:30:28;40.75;;;17.50;;
37485;SDS011;23341;50.296;18.960;2024-02-21T13:32:56;43.33;;;16.45;;
37485;SDS011;23341;50.296;18.960;2024-02-21T13:35:23;30.88;;;15.70;;
37485;SDS011;23341;50.296;18.960;2024-02-21T13:37:51;40.75;;;26.60;;
37485;SDS011;23341;50.296;18.960;2024-02-21T13:40:20;48.72;;;29.17;;
37485;SDS011;23341;50.296;18.960;2024-02-21T13:42:47;46.20;;;27.55;;
37485;SDS011;23341;50.296;18.960;2024-02-21T13:45:16;41.03;;;23.67;;
37485;SDS011;23341;50.296;18.960;2024-02-21T13:47:45;39.30;;;24.23;;
37485;SDS011;23341;50.296;18.960;2024-02-21T13:50:13;33.90;;;17.02;;
37485;SDS011;23341;50.296;18.960;2024-02-21T13:52:41;36.85;;;16.25;;
37485;SDS011;23341;50.296;18.960;2024-02-21T13:55:08;43.85;;;19.52;;
37485;SDS011;23341;50.296;18.960;2024-02-21T13:57:38;54.78;;;25.75;;
37485;SDS011;23341;50.296;18.960;2024-02-21T14:00:05;40.43;;;21.13;;
37485;SDS011;23341;50.296;18.960;2024-02-21T14:02:36;39.97;;;22.50;;
37485;SDS011;23341;50.296;18.960;2024-02-21T14:05:04;29.25;;;18.27;;
37485;SDS011;23341;50.296;18.960;2024-02-21T14:07:32;37.03;;;15.73;;
37485;SDS011;23341;50.296;18.960;2024-02-21T14:10:00;48.67;;;26.65;;
37485;SDS011;23341;50.296;18.960;2024-02-21T14:12:27;43.42;;;21.90;;
37485;SDS011;23341;50.296;18.960;2024-02-21T14:14:56;37.88;;;18.42;;
37485;SDS011;23341;50.296;18.960;2024-02-21T14:17:24;40.60;;;18.17;;
37485;SDS011;23341;50.296;18.960;2024-02-21T14:19:51;34.17;;;17.75;;
37485;SDS011;23341;50.296;18.960;2024-02-21T14:22:19;34.70;;;16.92;;
37485;SDS011;23341;50.296;18.960;2024-02-21T14:24:46;37.60;;;18.52;;